Terminal Aerodrome Forecast
Issued by NWS Cleveland, OH

Home | Current Version | Previous Version | Graphics & Text | Print | Product List | Glossary On
Versions: 1 2 3 4 5 6 7 8 9 10 11 12 13 14 15 16
000
FTUS41 KCLE 040524
TAFERI
TAF
KERI 040524Z 0406/0506 06004KT P6SM SCT050 BKN150
      TEMPO 0406/0409 BKN050
     FM040900 03004KT P6SM BKN200
     FM041700 32008KT P6SM SCT200
     FM050200 22002KT P6SM SKC=

USA.gov is the U.S. government's official web portal to all federal, state and local government web resources and services.